createdAt,value
2022-09-27T00:02:19.887Z,62.40
2022-09-27T00:04:47.639Z,62.77
2022-09-27T00:07:15.338Z,62.81
2022-09-27T00:09:44.454Z,62.36
2022-09-27T00:12:12.041Z,62.39
2022-09-27T00:14:40.765Z,62.20
2022-09-27T00:17:08.558Z,62.50
2022-09-27T00:19:36.245Z,62.19
2022-09-27T00:22:03.825Z,62.39
2022-09-27T00:24:32.809Z,62.22
2022-09-27T00:27:01.719Z,62.05
2022-09-27T00:29:30.583Z,62.60
2022-09-27T00:31:58.150Z,62.00
2022-09-27T00:34:31.805Z,61.97
2022-09-27T00:36:59.442Z,62.55
2022-09-27T00:39:27.217Z,62.62
2022-09-27T00:41:54.837Z,62.09
2022-09-27T00:44:59.293Z,61.69
2022-09-27T00:47:31.528Z,62.53
2022-09-27T00:50:00.780Z,61.93
2022-09-27T00:52:30.594Z,62.17
2022-09-27T00:54:59.580Z,62.14
2022-09-27T00:57:27.339Z,61.69
2022-09-27T00:59:56.114Z,61.63
2022-09-27T01:02:23.754Z,61.95
2022-09-27T01:04:53.401Z,61.93
2022-09-27T01:07:21.109Z,62.49
2022-09-27T01:09:49.289Z,62.21
2022-09-27T01:12:19.774Z,61.66
2022-09-27T01:14:56.757Z,62.11
2022-09-27T01:17:31.389Z,61.72
2022-09-27T01:20:45.258Z,61.54
2022-09-27T01:23:34.614Z,61.64
2022-09-27T01:26:10.889Z,62.08
2022-09-27T01:28:46.452Z,62.05
2022-09-27T01:31:18.225Z,62.07
2022-09-27T01:33:47.468Z,62.05
2022-09-27T01:36:20.788Z,62.17
2022-09-27T01:38:56.411Z,62.33
2022-09-27T01:41:28.993Z,62.17
2022-09-27T01:43:58.674Z,62.27
2022-09-27T01:46:28.903Z,62.00
2022-09-27T01:48:56.879Z,62.12
2022-09-27T01:51:26.425Z,61.81
2022-09-27T01:53:55.526Z,62.21
2022-09-27T01:56:25.320Z,61.77
2022-09-27T01:58:57.728Z,61.96
2022-09-27T02:01:25.841Z,61.57
2022-09-27T02:03:54.918Z,61.95
2022-09-27T02:06:23.687Z,61.96
2022-09-27T02:08:52.750Z,62.42
2022-09-27T02:11:20.461Z,62.00
2022-09-27T02:13:50.833Z,61.61
2022-09-27T02:16:24.226Z,61.72
2022-09-27T02:18:57.882Z,61.79
2022-09-27T02:21:27.215Z,62.21
2022-09-27T02:23:57.204Z,62.29
2022-09-27T02:26:27.757Z,62.08
2022-09-27T02:28:58.040Z,61.88
2022-09-27T02:31:25.811Z,61.74
2022-09-27T02:33:57.070Z,62.00
2022-09-27T02:36:24.919Z,61.60
2022-09-27T02:38:52.621Z,61.28
2022-09-27T02:41:20.999Z,61.77
2022-09-27T02:43:53.088Z,61.47
2022-09-27T02:46:36.533Z,61.98
2022-09-27T02:49:11.969Z,61.52
2022-09-27T02:51:44.932Z,61.29
2022-09-27T02:54:17.884Z,61.32
2022-09-27T02:56:49.851Z,61.12
2022-09-27T02:59:20.916Z,61.06
2022-09-27T03:01:51.894Z,60.88
2022-09-27T03:04:23.430Z,61.64
2022-09-27T03:06:51.232Z,61.47
2022-09-27T03:09:19.798Z,60.90
2022-09-27T03:11:47.523Z,61.57
2022-09-27T03:14:15.134Z,61.30
2022-09-27T03:16:43.854Z,61.39
2022-09-27T03:19:11.834Z,61.55
2022-09-27T03:21:40.948Z,61.96
2022-09-27T03:24:08.681Z,61.17
2022-09-27T03:26:36.396Z,61.11
2022-09-27T03:29:04.011Z,61.21
2022-09-27T03:31:32.003Z,61.25
2022-09-27T03:33:59.721Z,60.78
2022-09-27T03:36:27.397Z,61.29
2022-09-27T03:38:56.461Z,60.62
2022-09-27T03:41:24.104Z,60.73
2022-09-27T03:43:51.890Z,61.01
2022-09-27T03:46:19.572Z,61.03
2022-09-27T03:48:47.208Z,61.07
2022-09-27T03:51:14.809Z,60.66
2022-09-27T03:53:42.841Z,60.40
2022-09-27T03:56:11.916Z,60.48
2022-09-27T03:58:39.476Z,61.00
2022-09-27T04:01:07.201Z,60.96
2022-09-27T04:03:36.064Z,60.49
2022-09-27T04:06:03.859Z,60.93
2022-09-27T04:08:31.783Z,60.37
2022-09-27T04:10:59.433Z,60.51
2022-09-27T04:13:28.355Z,60.18
2022-09-27T04:15:56.113Z,60.13
2022-09-27T04:18:23.749Z,60.94
2022-09-27T04:20:51.420Z,60.47
2022-09-27T04:23:20.630Z,60.04
2022-09-27T04:25:48.403Z,60.15
2022-09-27T04:28:16.518Z,60.02
2022-09-27T04:30:46.472Z,60.75
2022-09-27T04:33:14.283Z,59.93
2022-09-27T04:35:59.705Z,60.41
2022-09-27T04:38:27.413Z,60.00
2022-09-27T04:40:55.205Z,59.87
2022-09-27T04:43:22.868Z,60.32
2022-09-27T04:45:51.952Z,60.62
2022-09-27T04:48:19.571Z,60.21
2022-09-27T04:50:47.167Z,59.99
2022-09-27T04:53:29.625Z,59.75
2022-09-27T04:58:26.108Z,60.34
2022-09-27T05:00:55.803Z,59.73
2022-09-27T05:03:23.613Z,60.07
2022-09-27T05:05:51.310Z,59.78
2022-09-27T05:08:19.142Z,59.91
2022-09-27T05:10:47.193Z,60.01
2022-09-27T05:13:15.009Z,59.71
2022-09-27T05:15:42.645Z,60.14
2022-09-27T05:18:11.720Z,59.88
2022-09-27T05:20:39.818Z,59.57
2022-09-27T05:23:07.473Z,59.81
2022-09-27T05:25:35.442Z,59.68
2022-09-27T05:28:03.453Z,59.78
2022-09-27T05:30:31.119Z,59.15
2022-09-27T05:32:58.715Z,59.94
2022-09-27T05:35:28.261Z,59.75
2022-09-27T05:37:56.094Z,59.56
2022-09-27T05:40:42.083Z,59.52
2022-09-27T05:43:10.364Z,59.38
2022-09-27T05:45:38.375Z,59.37
2022-09-27T05:48:06.104Z,59.75
2022-09-27T05:50:35.263Z,59.62
2022-09-27T05:53:02.861Z,59.35
2022-09-27T05:55:30.702Z,58.94
2022-09-27T05:57:59.325Z,58.91
2022-09-27T06:00:27.101Z,58.79
2022-09-27T06:02:56.189Z,58.44
2022-09-27T06:05:24.213Z,58.40
2022-09-27T06:07:53.462Z,58.81
2022-09-27T06:10:21.089Z,58.59
2022-09-27T06:12:50.269Z,58.60
2022-09-27T06:15:18.017Z,58.43
2022-09-27T06:17:45.774Z,58.52
2022-09-27T06:20:14.532Z,58.41
2022-09-27T06:22:42.303Z,57.78
2022-09-27T06:25:11.943Z,58.19
2022-09-27T06:27:39.672Z,57.22
2022-09-27T06:30:08.347Z,57.92
2022-09-27T06:32:36.640Z,57.58
2022-09-27T06:35:06.034Z,57.69
2022-09-27T06:37:34.648Z,58.00
2022-09-27T06:40:09.226Z,57.30
2022-09-27T06:42:38.813Z,57.40
2022-09-27T06:45:07.578Z,57.25
2022-09-27T06:47:36.697Z,57.45
2022-09-27T06:50:05.900Z,56.76
2022-09-27T06:52:33.575Z,56.29
2022-09-27T06:55:01.206Z,56.59
2022-09-27T06:57:46.285Z,57.08
2022-09-27T07:00:24.690Z,57.03
2022-09-27T07:02:52.288Z,56.87
2022-09-27T07:05:20.008Z,56.52
2022-09-27T07:07:47.843Z,56.98
2022-09-27T07:10:17.183Z,57.27
2022-09-27T07:12:47.425Z,56.46
2022-09-27T07:15:18.103Z,56.83
2022-09-27T07:17:47.428Z,56.55
2022-09-27T07:20:15.660Z,56.64
2022-09-27T07:22:44.068Z,56.75
2022-09-27T07:25:11.948Z,56.73
2022-09-27T07:27:41.252Z,56.59
2022-09-27T07:30:10.311Z,56.86
2022-09-27T07:32:39.334Z,56.47
2022-09-27T07:35:08.134Z,56.75
2022-09-27T07:37:36.188Z,56.16
2022-09-27T07:40:08.672Z,56.22
2022-09-27T07:42:37.858Z,56.39
2022-09-27T07:45:09.242Z,56.32
2022-09-27T07:47:37.497Z,55.70
2022-09-27T07:50:07.128Z,56.24
2022-09-27T07:52:40.173Z,55.76
2022-09-27T07:55:08.941Z,55.92
2022-09-27T07:57:36.597Z,55.13
2022-09-27T08:00:05.996Z,55.51
2022-09-27T08:02:33.738Z,55.04
2022-09-27T08:05:01.523Z,54.94
2022-09-27T08:07:31.247Z,54.85
2022-09-27T08:10:00.051Z,55.02
2022-09-27T08:12:27.759Z,54.80
2022-09-27T08:14:58.524Z,54.47
2022-09-27T08:17:26.439Z,54.90
2022-09-27T08:19:54.003Z,54.32
2022-09-27T08:22:22.161Z,54.23
2022-09-27T08:24:51.119Z,54.57
2022-09-27T08:27:18.949Z,54.12
2022-09-27T08:29:47.800Z,54.41
2022-09-27T08:32:18.338Z,54.59
2022-09-27T08:34:49.867Z,54.61
2022-09-27T08:37:17.541Z,54.11
2022-09-27T08:39:47.975Z,54.28
2022-09-27T08:42:21.108Z,53.82
2022-09-27T08:44:51.137Z,54.14
2022-09-27T08:47:19.427Z,54.52
2022-09-27T08:52:32.710Z,53.88
2022-09-27T08:55:02.636Z,54.12
2022-09-27T08:57:31.623Z,53.73
2022-09-27T09:00:02.742Z,54.00
2022-09-27T09:02:30.427Z,53.68
2022-09-27T09:05:00.114Z,53.65
2022-09-27T09:07:36.922Z,53.02
2022-09-27T09:10:07.722Z,52.93
2022-09-27T09:12:48.676Z,52.92
2022-09-27T09:15:24.179Z,53.25
2022-09-27T09:18:20.309Z,53.07
2022-09-27T09:20:56.233Z,52.82
2022-09-27T09:23:50.171Z,52.91
2022-09-27T09:26:20.564Z,52.76
2022-09-27T09:28:57.056Z,52.26
2022-09-27T09:31:27.709Z,52.18
2022-09-27T09:33:56.415Z,52.14
2022-09-27T09:36:26.360Z,52.33
2022-09-27T09:38:55.738Z,52.62
2022-09-27T09:41:25.961Z,52.46
2022-09-27T09:43:56.865Z,52.53
2022-09-27T09:46:25.729Z,52.36
2022-09-27T09:48:56.148Z,52.36
2022-09-27T09:51:38.376Z,51.74
2022-09-27T09:54:07.914Z,51.59
2022-09-27T09:56:36.710Z,51.69
2022-09-27T09:59:07.732Z,51.56
2022-09-27T10:01:36.796Z,51.49
2022-09-27T10:04:04.484Z,51.55
2022-09-27T10:06:32.409Z,51.12
2022-09-27T10:09:00.537Z,51.07
2022-09-27T10:11:33.051Z,50.93
2022-09-27T10:14:00.788Z,50.95
2022-09-27T10:16:29.917Z,50.87
2022-09-27T10:19:00.646Z,51.09
2022-09-27T10:21:30.219Z,50.94
2022-09-27T10:24:17.335Z,50.77
2022-09-27T10:26:47.235Z,50.78
2022-09-27T10:29:24.732Z,50.85
2022-09-27T10:31:53.726Z,50.93
2022-09-27T10:34:26.218Z,51.24
2022-09-27T10:37:05.052Z,51.46
2022-09-27T10:39:32.634Z,52.20
2022-09-27T10:42:00.169Z,51.89
2022-09-27T10:44:29.281Z,51.75
2022-09-27T10:46:59.885Z,51.00
2022-09-27T10:49:29.110Z,50.08
2022-09-27T10:51:59.923Z,50.25
2022-09-27T10:54:28.679Z,49.79
2022-09-27T10:57:00.334Z,49.86
2022-09-27T10:59:30.626Z,49.88
2022-09-27T11:01:59.742Z,50.07
2022-09-27T11:04:30.967Z,50.58
2022-09-27T11:07:08.946Z,50.33
2022-09-27T11:09:46.661Z,49.79
2022-09-27T11:12:14.449Z,48.66
2022-09-27T11:14:42.221Z,48.02
2022-09-27T11:17:17.238Z,48.05
2022-09-27T11:19:54.058Z,47.54
2022-09-27T11:22:28.922Z,46.36
2022-09-27T11:25:02.890Z,45.72
2022-09-27T11:27:36.686Z,45.48
2022-09-27T11:30:08.427Z,44.52
2022-09-27T11:32:55.091Z,44.55
2022-09-27T11:35:32.794Z,44.68
2022-09-27T11:38:04.145Z,43.85
2022-09-27T11:40:34.784Z,43.55
2022-09-27T11:43:11.693Z,42.72
2022-09-27T11:46:14.262Z,41.34
2022-09-27T11:48:46.349Z,41.09
2022-09-27T11:51:37.610Z,40.82
2022-09-27T11:54:19.010Z,41.54
2022-09-27T11:56:51.072Z,42.18
2022-09-27T12:00:07.895Z,42.38
2022-09-27T12:02:47.896Z,42.39
2022-09-27T12:05:21.556Z,42.42
2022-09-27T12:07:58.957Z,42.86
2022-09-27T12:10:26.568Z,43.07
2022-09-27T12:12:56.956Z,43.54
2022-09-27T12:15:26.379Z,44.31
2022-09-27T12:17:56.850Z,44.56
2022-09-27T12:20:29.787Z,44.93
2022-09-27T12:23:00.605Z,45.16
2022-09-27T12:25:31.142Z,44.99
2022-09-27T12:28:12.103Z,44.59
2022-09-27T12:30:41.280Z,44.37
2022-09-27T12:33:18.705Z,44.07
2022-09-27T12:35:50.038Z,43.96
2022-09-27T12:38:20.211Z,43.73
2022-09-27T12:40:50.581Z,44.12
2022-09-27T12:43:20.291Z,43.62
2022-09-27T12:46:00.984Z,43.29
2022-09-27T12:48:31.156Z,43.71
2022-09-27T12:51:03.154Z,44.16
2022-09-27T12:53:32.326Z,44.50
2022-09-27T12:56:33.086Z,44.95
2022-09-27T12:59:22.308Z,45.15
2022-09-27T13:02:05.849Z,46.04
2022-09-27T13:04:43.528Z,46.67
2022-09-27T13:07:19.273Z,47.25
2022-09-27T13:10:02.443Z,47.38
2022-09-27T13:12:30.417Z,47.42
2022-09-27T13:15:02.029Z,47.98
2022-09-27T13:17:49.949Z,47.83
2022-09-27T13:20:48.919Z,47.54
2022-09-27T13:24:00.060Z,47.88
2022-09-27T13:26:48.585Z,48.17
2022-09-27T13:29:24.919Z,48.15
2022-09-27T13:32:23.562Z,48.48
2022-09-27T13:34:53.338Z,48.96
2022-09-27T13:37:38.734Z,48.88
2022-09-27T13:40:28.572Z,48.35
2022-09-27T13:43:26.949Z,47.92
2022-09-27T13:45:56.314Z,47.91
2022-09-27T13:48:27.700Z,47.61
2022-09-27T13:50:57.988Z,47.81
2022-09-27T13:53:29.104Z,47.96
2022-09-27T13:56:02.985Z,47.59
2022-09-27T13:58:49.198Z,47.33
2022-09-27T14:01:20.955Z,47.64
2022-09-27T14:03:49.396Z,47.71
2022-09-27T14:06:18.628Z,47.31
2022-09-27T14:08:47.467Z,47.26
2022-09-27T14:11:16.628Z,47.27
2022-09-27T14:13:45.862Z,47.43
2022-09-27T14:16:15.739Z,47.57
2022-09-27T14:18:44.634Z,47.49
2022-09-27T14:21:18.211Z,47.46
2022-09-27T14:23:46.138Z,47.30
2022-09-27T14:26:23.045Z,47.09
2022-09-27T14:28:52.351Z,46.86
2022-09-27T14:31:22.905Z,46.53
2022-09-27T14:33:50.883Z,46.35
2022-09-27T14:36:44.323Z,45.44
2022-09-27T14:39:17.432Z,46.08
2022-09-27T14:41:45.256Z,45.90
2022-09-27T14:44:20.449Z,45.62
2022-09-27T14:46:51.754Z,45.62
2022-09-27T14:49:20.511Z,45.00
2022-09-27T14:51:54.952Z,45.16
2022-09-27T14:54:26.130Z,45.13
2022-09-27T14:56:54.745Z,44.47
2022-09-27T14:59:27.898Z,44.67
2022-09-27T15:01:55.508Z,44.71
2022-09-27T15:04:23.474Z,44.91
2022-09-27T15:06:51.370Z,45.43
2022-09-27T15:09:19.016Z,45.84
2022-09-27T15:11:55.777Z,46.09
2022-09-27T15:14:25.227Z,46.47
2022-09-27T15:16:53.112Z,46.46
2022-09-27T15:19:24.260Z,47.42
2022-09-27T15:21:51.946Z,47.15
2022-09-27T15:24:38.856Z,47.37
2022-09-27T15:27:07.254Z,46.78
2022-09-27T15:29:37.130Z,47.16
2022-09-27T15:32:06.697Z,47.84
2022-09-27T15:34:38.496Z,47.58
2022-09-27T15:37:07.457Z,47.57
2022-09-27T15:39:36.972Z,47.62
2022-09-27T15:42:08.916Z,47.83
2022-09-27T15:44:45.696Z,47.76
2022-09-27T15:47:50.796Z,48.17
2022-09-27T15:50:41.111Z,48.12
2022-09-27T15:53:09.417Z,48.88
2022-09-27T15:55:40.718Z,49.03
2022-09-27T15:58:09.273Z,49.53
2022-09-27T16:00:38.554Z,50.29
2022-09-27T16:03:06.248Z,50.72
2022-09-27T16:05:34.134Z,50.91
2022-09-27T16:08:02.472Z,51.04
2022-09-27T16:10:31.673Z,51.12
2022-09-27T16:12:59.261Z,51.51
2022-09-27T16:15:26.869Z,51.74
2022-09-27T16:17:57.679Z,51.85
2022-09-27T16:20:27.145Z,51.78
2022-09-27T16:22:55.665Z,51.85
2022-09-27T16:25:24.496Z,51.69
2022-09-27T16:27:52.475Z,51.15
2022-09-27T16:30:20.984Z,51.97
2022-09-27T16:32:49.238Z,52.07
2022-09-27T16:35:20.297Z,51.86
2022-09-27T16:37:48.137Z,52.32
2022-09-27T16:40:23.329Z,52.36
2022-09-27T16:42:51.503Z,52.50
2022-09-27T16:45:19.956Z,52.66
2022-09-27T16:47:49.218Z,52.64
2022-09-27T16:50:41.465Z,52.48
2022-09-27T16:53:10.600Z,52.30
2022-09-27T16:55:40.903Z,52.17
2022-09-27T16:58:10.175Z,52.64
2022-09-27T17:00:39.041Z,52.08
2022-09-27T17:03:07.043Z,51.88
2022-09-27T17:05:37.184Z,52.01
2022-09-27T17:08:05.555Z,51.63
2022-09-27T17:10:38.507Z,51.71
2022-09-27T17:20:37.437Z,51.55
2022-09-27T17:23:06.447Z,51.59
2022-09-27T17:25:39.308Z,51.69
2022-09-27T17:28:15.616Z,51.55
2022-09-27T17:31:11.933Z,52.40
2022-09-27T17:36:48.531Z,52.45
2022-09-27T17:39:18.711Z,52.64
2022-09-27T17:41:48.632Z,52.64
2022-09-27T17:44:28.035Z,52.49
2022-09-27T17:47:36.045Z,52.34
2022-09-27T17:50:30.536Z,52.62
2022-09-27T17:53:19.625Z,53.33
2022-09-27T17:55:47.992Z,53.16
2022-09-27T17:58:18.188Z,53.46
2022-09-27T18:00:59.221Z,53.26
2022-09-27T18:03:31.595Z,53.29
2022-09-27T18:06:00.729Z,53.62
2022-09-27T18:09:00.720Z,52.86
2022-09-27T18:11:29.413Z,53.16
2022-09-27T18:14:00.327Z,53.14
2022-09-27T18:16:32.570Z,53.36
2022-09-27T18:19:00.775Z,53.40
2022-09-27T18:21:28.814Z,53.25
2022-09-27T18:23:58.574Z,53.01
2022-09-27T18:26:29.081Z,53.04
2022-09-27T18:29:01.779Z,53.60
2022-09-27T18:31:29.846Z,53.48
2022-09-27T18:33:57.771Z,53.53
2022-09-27T18:36:26.327Z,53.33
2022-09-27T18:38:54.919Z,53.13
2022-09-27T18:41:25.360Z,53.49
2022-09-27T18:43:56.870Z,53.32
2022-09-27T18:46:40.505Z,53.52
2022-09-27T18:49:09.293Z,53.43
2022-09-27T18:51:37.751Z,54.00
2022-09-27T18:54:06.737Z,54.06
2022-09-27T18:56:39.331Z,54.03
2022-09-27T18:59:08.650Z,54.18
2022-09-27T19:01:39.645Z,54.37
2022-09-27T19:04:08.202Z,54.17
2022-09-27T19:06:36.398Z,54.45
2022-09-27T19:09:05.732Z,54.76
2022-09-27T19:11:35.101Z,54.64
2022-09-27T19:14:02.871Z,54.90
2022-09-27T19:16:31.175Z,55.02
2022-09-27T19:19:03.581Z,54.63
2022-09-27T19:21:31.869Z,54.54
2022-09-27T19:23:59.846Z,54.87
2022-09-27T19:26:29.952Z,55.51
2022-09-27T19:28:59.880Z,55.20
2022-09-27T19:31:29.552Z,55.47
2022-09-27T19:34:01.133Z,55.37
2022-09-27T19:36:32.154Z,55.77
2022-09-27T19:39:02.149Z,55.70
2022-09-27T19:41:30.289Z,55.78
2022-09-27T19:43:59.831Z,55.90
2022-09-27T19:46:28.250Z,56.29
2022-09-27T19:48:57.063Z,56.28
2022-09-27T19:51:26.026Z,56.28
2022-09-27T19:53:54.213Z,56.34
2022-09-27T19:56:22.858Z,56.07
2022-09-27T19:58:52.096Z,55.86
2022-09-27T20:01:23.664Z,56.13
2022-09-27T20:03:55.932Z,56.13
2022-09-27T20:06:27.499Z,56.38
2022-09-27T20:08:59.022Z,55.99
2022-09-27T20:11:36.211Z,56.30
2022-09-27T20:14:07.280Z,56.36
2022-09-27T20:16:41.507Z,56.67
2022-09-27T20:19:31.235Z,56.79
2022-09-27T20:22:03.326Z,57.33
2022-09-27T20:24:32.412Z,57.47
2022-09-27T20:27:31.319Z,57.70
2022-09-27T20:30:04.323Z,58.39
2022-09-27T20:32:35.331Z,58.72
2022-09-27T20:35:11.711Z,58.93
2022-09-27T20:37:40.181Z,59.08
2022-09-27T20:40:18.731Z,59.17
2022-09-27T20:43:03.379Z,59.06
2022-09-27T20:45:41.673Z,59.41
2022-09-27T20:48:18.817Z,59.83
2022-09-27T20:50:54.171Z,59.61
2022-09-27T20:53:27.847Z,60.09
2022-09-27T20:55:56.295Z,59.92
2022-09-27T20:58:24.499Z,59.60
2022-09-27T21:00:53.777Z,60.16
2022-09-27T21:03:26.840Z,60.27
2022-09-27T21:05:56.100Z,60.73
2022-09-27T21:08:24.910Z,60.70
2022-09-27T21:10:54.120Z,60.32
2022-09-27T21:13:22.505Z,60.40
2022-09-27T21:15:55.557Z,60.16
2022-09-27T21:18:25.112Z,60.10
2022-09-27T21:20:58.827Z,60.43
2022-09-27T21:23:26.756Z,60.06
2022-09-27T21:26:05.520Z,60.35
2022-09-27T21:28:38.702Z,60.33
2022-09-27T21:31:07.945Z,60.53
2022-09-27T21:33:39.041Z,60.34
2022-09-27T21:36:10.411Z,60.95
2022-09-27T21:38:40.503Z,60.51
2022-09-27T21:41:09.554Z,60.14
2022-09-27T21:43:42.854Z,60.63
2022-09-27T21:46:12.032Z,60.26
2022-09-27T21:48:42.701Z,60.50
2022-09-27T21:51:12.335Z,60.49
2022-09-27T21:53:43.631Z,60.14
2022-09-27T21:56:12.106Z,60.56
2022-09-27T21:58:41.677Z,60.30
2022-09-27T22:01:10.814Z,60.23
2022-09-27T22:03:39.623Z,60.38
2022-09-27T22:06:10.804Z,60.63
2022-09-27T22:08:39.325Z,60.70
2022-09-27T22:11:07.716Z,59.97
2022-09-27T22:13:35.974Z,60.48
2022-09-27T22:16:05.249Z,60.57
2022-09-27T22:18:35.317Z,60.65
2022-09-27T22:21:04.699Z,60.53
2022-09-27T22:23:35.739Z,60.42
2022-09-27T22:26:13.075Z,60.68
2022-09-27T22:28:41.529Z,60.78
2022-09-27T22:31:15.287Z,60.48
2022-09-27T22:33:43.853Z,60.25
2022-09-27T22:36:12.244Z,60.10
2022-09-27T22:38:41.872Z,60.69
2022-09-27T22:41:13.544Z,60.47
2022-09-27T22:43:41.358Z,60.89
2022-09-27T22:46:09.293Z,60.70
2022-09-27T22:48:37.450Z,60.68
2022-09-27T22:51:05.227Z,60.35
2022-09-27T22:53:32.981Z,60.20
2022-09-27T22:56:04.753Z,60.52
2022-09-27T22:58:32.687Z,60.44
2022-09-27T23:01:00.522Z,60.31
2022-09-27T23:03:28.286Z,60.61
2022-09-27T23:05:55.982Z,60.50
2022-09-27T23:08:23.763Z,60.50
2022-09-27T23:10:51.374Z,60.61
2022-09-27T23:13:20.547Z,60.84
2022-09-27T23:15:48.291Z,60.74
2022-09-27T23:18:15.994Z,60.51
2022-09-27T23:20:44.896Z,60.62
2022-09-27T23:23:14.063Z,60.42
2022-09-27T23:25:41.801Z,60.76
2022-09-27T23:28:09.457Z,60.11
2022-09-27T23:30:38.753Z,60.15
2022-09-27T23:33:06.454Z,60.24
2022-09-27T23:35:34.169Z,60.10
2022-09-27T23:38:01.933Z,60.04
2022-09-27T23:40:30.041Z,60.29
2022-09-27T23:43:00.794Z,60.19
2022-09-27T23:45:28.598Z,60.43
2022-09-27T23:47:57.974Z,59.78
2022-09-27T23:50:26.101Z,59.58
2022-09-27T23:52:53.873Z,59.70
2022-09-27T23:55:21.629Z,60.21
2022-09-27T23:57:49.348Z,60.05
